createdAt,value
2018-12-11T00:00:34.684Z,2.30
2018-12-11T00:03:41.229Z,2.03
2018-12-11T00:06:47.508Z,2.50
2018-12-11T00:09:54.323Z,1.60
2018-12-11T00:13:00.783Z,1.90
2018-12-11T00:16:07.088Z,1.83
2018-12-11T00:19:13.298Z,2.20
2018-12-11T00:22:19.719Z,2.27
2018-12-11T00:25:26.600Z,2.20
2018-12-11T00:28:32.843Z,2.07
2018-12-11T00:31:39.068Z,2.17
2018-12-11T00:34:45.402Z,2.23
2018-12-11T00:37:51.755Z,2.30
2018-12-11T00:40:58.845Z,2.43
2018-12-11T00:44:05.177Z,2.57
2018-12-11T00:47:11.609Z,2.10
2018-12-11T00:50:17.883Z,2.73
2018-12-11T00:53:24.601Z,2.33
2018-12-11T00:56:31.414Z,2.17
2018-12-11T00:59:37.977Z,2.00
2018-12-11T01:02:44.525Z,1.93
2018-12-11T01:05:51.111Z,1.97
2018-12-11T01:08:57.512Z,2.70
2018-12-11T01:12:04.605Z,2.27
2018-12-11T01:15:10.909Z,2.57
2018-12-11T01:18:17.127Z,2.40
2018-12-11T01:21:23.588Z,2.37
2018-12-11T01:24:29.845Z,2.63
2018-12-11T01:27:36.786Z,2.03
2018-12-11T01:30:43.222Z,2.27
2018-12-11T01:33:49.498Z,2.57
2018-12-11T01:36:55.761Z,2.93
2018-12-11T01:40:02.243Z,1.97
2018-12-11T01:43:09.366Z,2.33
2018-12-11T01:46:15.755Z,2.10
2018-12-11T01:49:21.928Z,2.03
2018-12-11T01:52:28.403Z,2.53
2018-12-11T01:55:34.938Z,2.87
2018-12-11T01:58:41.374Z,2.10
2018-12-11T02:01:47.591Z,1.80
2018-12-11T02:04:53.892Z,2.97
2018-12-11T02:08:00.368Z,2.00
2018-12-11T02:11:06.785Z,2.43
2018-12-11T02:14:13.019Z,2.23
2018-12-11T02:17:19.479Z,2.03
2018-12-11T02:20:25.866Z,2.50
2018-12-11T02:23:32.205Z,2.00
2018-12-11T02:26:38.706Z,2.17
2018-12-11T02:29:45.100Z,2.67
2018-12-11T02:32:51.242Z,1.97
2018-12-11T02:35:57.499Z,1.97
2018-12-11T02:39:05.708Z,1.77
2018-12-11T02:42:12.265Z,2.43
2018-12-11T02:45:19.355Z,2.23
2018-12-11T02:48:25.829Z,1.93
2018-12-11T02:51:32.117Z,1.60
2018-12-11T02:54:38.442Z,2.40
2018-12-11T02:57:44.847Z,1.97
2018-12-11T03:00:52.017Z,1.87
2018-12-11T03:03:58.551Z,2.33
2018-12-11T03:07:04.884Z,1.87
2018-12-11T03:10:11.260Z,2.33
2018-12-11T03:13:17.631Z,1.83
2018-12-11T03:16:24.726Z,3.20
2018-12-11T03:19:31.071Z,2.33
2018-12-11T03:22:37.314Z,2.23
2018-12-11T03:25:43.531Z,2.20
2018-12-11T03:28:49.919Z,1.50
2018-12-11T03:31:56.562Z,2.10
2018-12-11T03:35:03.182Z,2.07
2018-12-11T03:38:09.546Z,3.37
2018-12-11T03:41:15.839Z,1.97
2018-12-11T03:44:22.346Z,2.00
2018-12-11T03:47:28.885Z,2.30
2018-12-11T03:50:35.193Z,1.80
2018-12-11T03:53:41.548Z,2.03
2018-12-11T03:56:47.933Z,2.50
2018-12-11T03:59:54.317Z,2.00
2018-12-11T04:03:00.975Z,2.80
2018-12-11T04:06:07.556Z,1.80
2018-12-11T04:09:13.947Z,1.67
2018-12-11T04:12:20.545Z,2.27
2018-12-11T04:15:27.246Z,1.90
2018-12-11T04:18:34.549Z,1.70
2018-12-11T04:21:41.205Z,1.97
2018-12-11T04:24:48.006Z,1.63
2018-12-11T04:27:54.579Z,1.93
2018-12-11T04:31:01.344Z,1.43
2018-12-11T04:34:07.599Z,2.67
2018-12-11T04:37:14.435Z,2.57
2018-12-11T04:40:20.823Z,2.40
2018-12-11T04:43:27.169Z,2.40
2018-12-11T04:46:33.441Z,2.83
2018-12-11T04:49:39.688Z,2.10
2018-12-11T04:52:45.959Z,1.80
2018-12-11T04:55:52.362Z,1.70
2018-12-11T04:58:58.824Z,2.07
2018-12-11T05:02:05.701Z,2.40
2018-12-11T05:05:12.007Z,2.30
2018-12-11T05:08:18.404Z,2.50
2018-12-11T05:11:24.683Z,2.37
2018-12-11T05:14:31.135Z,2.83
2018-12-11T05:17:37.641Z,1.90
2018-12-11T05:20:44.110Z,1.77
2018-12-11T05:23:50.402Z,2.17
2018-12-11T05:26:56.743Z,3.00
2018-12-11T05:30:03.426Z,2.27
2018-12-11T05:33:09.742Z,1.87
2018-12-11T05:36:16.108Z,2.37
2018-12-11T05:39:22.645Z,2.63
2018-12-11T05:42:29.186Z,2.50
2018-12-11T05:45:35.811Z,2.87
2018-12-11T05:48:42.119Z,2.23
2018-12-11T05:51:49.104Z,2.87
2018-12-11T05:54:55.328Z,2.13
2018-12-11T05:58:01.729Z,1.90
2018-12-11T06:01:08.438Z,2.47
2018-12-11T06:04:15.294Z,2.10
2018-12-11T06:07:21.873Z,2.93
2018-12-11T06:10:28.456Z,2.37
2018-12-11T06:13:35.077Z,1.87
2018-12-11T06:16:41.744Z,2.10
2018-12-11T06:19:48.530Z,2.60
2018-12-11T06:22:55.188Z,2.03
2018-12-11T06:26:01.574Z,7.30
2018-12-11T06:29:08.312Z,2.57
2018-12-11T06:32:14.926Z,2.27
2018-12-11T06:35:21.394Z,1.87
2018-12-11T06:38:27.791Z,2.10
2018-12-11T06:41:34.176Z,2.30
2018-12-11T06:44:40.446Z,1.73
2018-12-11T06:47:46.919Z,1.83
2018-12-11T06:50:53.526Z,1.70
2018-12-11T06:53:59.889Z,2.40
2018-12-11T06:57:06.340Z,2.43
2018-12-11T07:00:12.773Z,2.63
2018-12-11T07:03:19.023Z,3.20
2018-12-11T07:06:25.578Z,2.30
2018-12-11T07:09:31.838Z,2.43
2018-12-11T07:12:38.157Z,2.43
2018-12-11T07:15:44.417Z,2.80
2018-12-11T07:18:50.833Z,1.67
2018-12-11T07:21:57.401Z,3.30
2018-12-11T07:25:04.678Z,2.97
2018-12-11T07:28:11.256Z,2.90
2018-12-11T07:31:17.942Z,2.57
2018-12-11T07:34:24.360Z,2.60
2018-12-11T07:37:30.944Z,2.70
2018-12-11T07:40:37.893Z,2.40
2018-12-11T07:43:44.312Z,2.37
2018-12-11T07:46:51.073Z,2.50
2018-12-11T07:49:57.381Z,2.50
2018-12-11T07:53:06.473Z,2.47
2018-12-11T07:56:11.777Z,2.23
2018-12-11T07:59:18.118Z,2.80
2018-12-11T08:02:24.354Z,3.07
2018-12-11T08:05:30.711Z,2.53
2018-12-11T08:08:36.943Z,2.30
2018-12-11T08:11:43.122Z,1.97
2018-12-11T08:14:49.317Z,2.07
2018-12-11T08:17:55.438Z,2.50
2018-12-11T08:21:01.791Z,2.40
2018-12-11T08:24:08.239Z,2.90
2018-12-11T08:27:14.381Z,1.63
2018-12-11T08:30:20.616Z,2.73
2018-12-11T08:33:26.827Z,1.80
2018-12-11T08:36:33.076Z,2.50
2018-12-11T08:39:39.279Z,2.47
2018-12-11T08:42:46.219Z,3.30
2018-12-11T08:45:52.364Z,2.57
2018-12-11T08:48:58.625Z,2.90
2018-12-11T08:52:04.785Z,3.57
2018-12-11T08:55:11.276Z,2.70
2018-12-11T08:58:17.791Z,2.13
2018-12-11T09:01:24.188Z,3.00
2018-12-11T09:04:30.375Z,2.80
2018-12-11T09:07:36.518Z,2.57
2018-12-11T09:10:42.699Z,2.50
2018-12-11T09:13:49.852Z,2.90
2018-12-11T09:16:55.978Z,2.47
2018-12-11T09:20:02.182Z,2.33
2018-12-11T09:23:08.409Z,2.97
2018-12-11T09:26:14.786Z,2.60
2018-12-11T09:29:21.346Z,3.97
2018-12-11T09:32:27.527Z,2.67
2018-12-11T09:35:33.637Z,2.47
2018-12-11T09:38:39.847Z,2.57
2018-12-11T09:41:46.005Z,2.33
2018-12-11T09:44:52.168Z,2.83
2018-12-11T09:47:58.905Z,1.70
2018-12-11T09:51:05.070Z,2.67
2018-12-11T09:54:11.283Z,3.20
2018-12-11T09:57:17.438Z,2.73
2018-12-11T10:00:27.236Z,2.40
2018-12-11T10:03:31.803Z,2.90
2018-12-11T10:06:38.074Z,2.20
2018-12-11T10:09:44.227Z,2.17
2018-12-11T10:12:50.420Z,2.20
2018-12-11T10:15:56.605Z,3.30
2018-12-11T10:19:02.810Z,1.97
2018-12-11T10:22:08.884Z,2.47
2018-12-11T10:25:15.067Z,2.40
2018-12-11T10:28:21.518Z,3.17
2018-12-11T10:31:27.648Z,2.60
2018-12-11T10:34:34.245Z,3.47
2018-12-11T10:37:40.428Z,1.97
2018-12-11T10:40:46.612Z,2.67
2018-12-11T10:43:52.788Z,3.13
2018-12-11T10:46:58.929Z,2.30
2018-12-11T10:50:06.965Z,2.47
2018-12-11T10:53:13.211Z,3.10
2018-12-11T10:56:19.501Z,3.40
2018-12-11T10:59:25.715Z,3.50
2018-12-11T11:02:32.151Z,2.87
2018-12-11T11:05:38.906Z,2.73
2018-12-11T11:08:45.261Z,3.03
2018-12-11T11:11:51.573Z,2.97
2018-12-11T11:14:57.850Z,2.50
2018-12-11T11:18:04.349Z,2.17
2018-12-11T11:21:11.227Z,2.90
2018-12-11T11:24:17.405Z,3.00
2018-12-11T11:27:23.706Z,2.80
2018-12-11T11:30:29.917Z,2.47
2018-12-11T11:33:36.199Z,1.90
2018-12-11T11:36:43.095Z,2.00
2018-12-11T11:39:49.406Z,2.47
2018-12-11T11:42:55.721Z,3.03
2018-12-11T11:46:01.977Z,2.87
2018-12-11T11:49:08.420Z,2.70
2018-12-11T11:52:14.840Z,2.70
2018-12-11T11:55:20.975Z,2.63
2018-12-11T11:58:27.326Z,2.50
2018-12-11T12:01:33.817Z,2.87
2018-12-11T12:04:40.036Z,3.20
2018-12-11T12:07:46.492Z,2.67
2018-12-11T12:10:52.849Z,2.33
2018-12-11T12:13:59.163Z,2.23
2018-12-11T12:17:05.965Z,2.50
2018-12-11T12:20:12.189Z,2.60
2018-12-11T12:23:18.531Z,2.07
2018-12-11T12:26:24.795Z,3.13
2018-12-11T12:29:31.108Z,2.13
2018-12-11T12:32:37.454Z,2.37
2018-12-11T12:35:43.915Z,1.80
2018-12-11T12:38:50.197Z,2.20
2018-12-11T12:41:57.449Z,2.33
2018-12-11T12:45:03.913Z,2.23
2018-12-11T12:48:10.182Z,1.97
2018-12-11T12:51:16.550Z,2.07
2018-12-11T12:54:23.558Z,2.30
2018-12-11T12:57:29.954Z,2.57
2018-12-11T13:00:36.337Z,2.27
2018-12-11T13:03:43.352Z,1.90
2018-12-11T13:06:49.844Z,2.20
2018-12-11T13:09:56.627Z,3.10
2018-12-11T13:13:02.998Z,1.77
2018-12-11T13:16:09.422Z,2.27
2018-12-11T13:19:15.894Z,2.47
2018-12-11T13:22:22.335Z,2.53
2018-12-11T13:25:29.239Z,2.20
2018-12-11T13:28:35.619Z,3.20
2018-12-11T13:31:42.020Z,2.20
2018-12-11T13:34:48.301Z,2.63
2018-12-11T13:37:54.570Z,2.70
2018-12-11T13:41:01.965Z,2.63
2018-12-11T13:44:08.704Z,3.07
2018-12-11T13:47:15.301Z,2.40
2018-12-11T13:50:21.679Z,3.00
2018-12-11T13:53:28.555Z,2.77
2018-12-11T13:56:35.794Z,2.57
2018-12-11T13:59:42.131Z,2.23
2018-12-11T14:02:48.542Z,2.50
2018-12-11T14:05:54.918Z,2.27
2018-12-11T14:09:05.494Z,2.40
2018-12-11T14:12:12.169Z,2.30
2018-12-11T14:15:19.137Z,2.23
2018-12-11T14:18:25.353Z,2.53
2018-12-11T14:21:31.876Z,3.13
2018-12-11T14:24:38.550Z,2.63
2018-12-11T14:27:45.086Z,3.07
2018-12-11T14:30:51.255Z,3.30
2018-12-11T14:33:57.372Z,2.30
2018-12-11T14:37:03.965Z,2.37
2018-12-11T14:40:11.331Z,2.73
2018-12-11T14:43:17.702Z,3.23
2018-12-11T14:46:24.361Z,3.53
2018-12-11T14:49:30.699Z,2.20
2018-12-11T14:52:37.113Z,2.53
2018-12-11T14:55:43.569Z,3.33
2018-12-11T14:58:49.905Z,2.53
2018-12-11T15:01:56.506Z,3.33
2018-12-11T15:05:03.077Z,2.33
2018-12-11T15:08:09.542Z,2.07
2018-12-11T15:11:15.904Z,3.10
2018-12-11T15:14:22.140Z,2.60
2018-12-11T15:17:28.481Z,2.73
2018-12-11T15:20:35.160Z,3.50
2018-12-11T15:23:41.687Z,3.67
2018-12-11T15:26:48.758Z,3.10
2018-12-11T15:29:55.218Z,2.27
2018-12-11T15:33:01.651Z,2.47
2018-12-11T15:36:08.067Z,2.97
2018-12-11T15:39:14.364Z,2.63
2018-12-11T15:42:21.326Z,2.77
2018-12-11T15:45:27.680Z,2.80
2018-12-11T15:48:34.161Z,3.33
2018-12-11T15:51:40.707Z,3.13
2018-12-11T15:54:47.342Z,4.23
2018-12-11T15:57:54.358Z,2.87
2018-12-11T16:01:01.071Z,3.00
2018-12-11T16:04:08.323Z,2.77
2018-12-11T16:07:14.598Z,4.27
2018-12-11T16:10:20.890Z,2.73
2018-12-11T16:13:27.815Z,4.20
2018-12-11T16:16:34.182Z,3.07
2018-12-11T16:19:40.529Z,4.07
2018-12-11T16:22:48.740Z,3.13
2018-12-11T16:25:55.313Z,3.50
2018-12-11T16:29:02.692Z,3.97
2018-12-11T16:32:09.798Z,3.33
2018-12-11T16:35:16.446Z,3.60
2018-12-11T16:38:23.106Z,3.30
2018-12-11T16:41:30.066Z,3.43
2018-12-11T16:44:40.168Z,3.33
2018-12-11T16:47:47.163Z,3.37
2018-12-11T16:50:55.183Z,3.13
2018-12-11T16:54:02.375Z,3.97
2018-12-11T16:57:08.681Z,3.60
2018-12-11T17:00:15.407Z,4.33
2018-12-11T17:03:22.047Z,4.37
2018-12-11T17:06:28.682Z,4.53
2018-12-11T17:09:37.440Z,3.90
2018-12-11T17:12:44.210Z,3.97
2018-12-11T17:15:51.400Z,3.93
2018-12-11T17:18:57.811Z,4.40
2018-12-11T17:22:04.819Z,3.60
2018-12-11T17:25:11.992Z,5.43
2018-12-11T17:28:18.490Z,4.03
2018-12-11T17:31:24.941Z,4.20
2018-12-11T17:34:31.508Z,5.33
2018-12-11T17:37:38.637Z,4.17
2018-12-11T17:40:45.428Z,3.77
2018-12-11T17:43:52.265Z,3.80
2018-12-11T17:46:59.390Z,3.40
2018-12-11T17:50:07.386Z,3.50
2018-12-11T17:53:13.930Z,5.03
2018-12-11T17:56:20.206Z,5.57
2018-12-11T17:59:26.567Z,6.67
2018-12-11T18:02:36.858Z,3.30
2018-12-11T18:05:43.501Z,3.90
2018-12-11T18:08:49.886Z,4.03
2018-12-11T18:11:56.210Z,5.33
2018-12-11T18:15:02.950Z,6.40
2018-12-11T18:18:09.797Z,3.60
2018-12-11T18:21:17.092Z,4.17
2018-12-11T18:24:23.723Z,4.90
2018-12-11T18:27:31.355Z,3.90
2018-12-11T18:30:37.878Z,3.77
2018-12-11T18:33:44.126Z,3.80
2018-12-11T18:36:51.794Z,4.10
2018-12-11T18:39:58.204Z,3.43
2018-12-11T18:43:04.610Z,4.10
2018-12-11T18:46:11.216Z,3.33
2018-12-11T18:49:17.658Z,3.77
2018-12-11T18:52:24.164Z,3.77
2018-12-11T18:55:30.621Z,4.70
2018-12-11T18:58:37.244Z,4.03
2018-12-11T19:01:43.860Z,3.40
2018-12-11T19:04:50.377Z,3.93
2018-12-11T19:07:57.150Z,3.47
2018-12-11T19:11:03.957Z,3.03
2018-12-11T19:14:10.733Z,3.20
2018-12-11T19:17:17.378Z,2.97
2018-12-11T19:20:23.853Z,3.50
2018-12-11T19:23:36.798Z,2.60
2018-12-11T19:26:43.502Z,3.00
2018-12-11T19:29:50.160Z,3.07
2018-12-11T19:32:56.788Z,3.30
2018-12-11T19:36:03.265Z,3.23
2018-12-11T19:39:10.315Z,3.77
2018-12-11T19:42:16.534Z,3.83
2018-12-11T19:45:23.186Z,3.97
2018-12-11T19:48:29.636Z,4.17
2018-12-11T19:51:35.804Z,3.30
2018-12-11T19:54:42.183Z,4.10
2018-12-11T19:57:48.898Z,4.00
2018-12-11T20:00:55.330Z,3.60
2018-12-11T20:04:03.138Z,4.17
2018-12-11T20:07:09.621Z,5.00
2018-12-11T20:10:18.407Z,3.87
2018-12-11T20:13:25.228Z,3.80
2018-12-11T20:16:31.795Z,3.43
2018-12-11T20:19:38.070Z,4.03
2018-12-11T20:22:44.533Z,3.17
2018-12-11T20:25:50.943Z,3.07
2018-12-11T20:28:57.406Z,2.70
2018-12-11T20:32:03.783Z,2.67
2018-12-11T20:35:10.287Z,3.43
2018-12-11T20:38:16.691Z,3.40
2018-12-11T20:41:23.275Z,2.93
2018-12-11T20:44:29.630Z,3.70
2018-12-11T20:47:36.045Z,3.53
2018-12-11T20:50:42.580Z,3.30
2018-12-11T20:53:49.138Z,3.83
2018-12-11T20:56:55.661Z,4.50
2018-12-11T21:00:02.123Z,4.27
2018-12-11T21:03:08.658Z,3.33
2018-12-11T21:06:15.913Z,5.10
2018-12-11T21:09:22.573Z,3.87
2018-12-11T21:12:29.027Z,4.27
2018-12-11T21:15:35.383Z,4.20
2018-12-11T21:18:42.064Z,4.40
2018-12-11T21:21:48.333Z,3.77
2018-12-11T21:24:54.701Z,3.67
2018-12-11T21:28:01.215Z,3.53
2018-12-11T21:31:07.538Z,3.90
2018-12-11T21:34:13.966Z,3.77
2018-12-11T21:37:20.547Z,3.93
2018-12-11T21:40:27.810Z,4.03
2018-12-11T21:43:34.317Z,3.53
2018-12-11T21:46:40.652Z,3.50
2018-12-11T21:49:46.947Z,3.20
2018-12-11T21:52:53.351Z,4.10
2018-12-11T21:56:00.094Z,3.07
2018-12-11T21:59:06.334Z,3.30
2018-12-11T22:02:12.857Z,3.13
2018-12-11T22:05:19.511Z,3.27
2018-12-11T22:08:25.925Z,2.73
2018-12-11T22:11:32.159Z,2.83
2018-12-11T22:14:38.438Z,2.07
2018-12-11T22:17:44.581Z,1.77
2018-12-11T22:20:50.922Z,2.40
2018-12-11T22:23:57.121Z,2.30
2018-12-11T22:27:03.544Z,2.30
2018-12-11T22:30:09.835Z,2.47
2018-12-11T22:33:16.188Z,2.77
2018-12-11T22:36:22.550Z,2.63
2018-12-11T22:39:29.815Z,3.00
2018-12-11T22:42:36.293Z,2.50
2018-12-11T22:45:42.615Z,2.57
2018-12-11T22:48:49.095Z,2.87
2018-12-11T22:51:55.257Z,2.23
2018-12-11T22:55:02.199Z,2.63
2018-12-11T22:58:08.550Z,2.53
2018-12-11T23:01:14.826Z,2.50
2018-12-11T23:04:21.300Z,2.83
2018-12-11T23:07:27.589Z,3.57
2018-12-11T23:10:34.235Z,3.43
2018-12-11T23:13:40.310Z,3.60
2018-12-11T23:16:47.194Z,2.63
2018-12-11T23:19:53.521Z,3.07
2018-12-11T23:22:59.596Z,3.60
2018-12-11T23:26:06.407Z,3.23
2018-12-11T23:29:12.586Z,3.60
2018-12-11T23:32:18.832Z,3.70
2018-12-11T23:35:25.347Z,3.70
2018-12-11T23:38:31.600Z,4.00
2018-12-11T23:41:38.187Z,3.40
2018-12-11T23:44:44.689Z,3.40
2018-12-11T23:47:50.906Z,3.40
2018-12-11T23:50:57.182Z,3.00
2018-12-11T23:54:03.450Z,2.83
2018-12-11T23:57:10.633Z,2.70
